Time;durP1;ratioP1;P1;durP2;ratioP2;P2;SDS_P1;SDS_P2;PMS_P1;PMS_P2;Temp;Humidity;BMP_temperature;BMP_pressure;BME280_temperature;BME280_humidity;BME280_pressure;Samples;Min_cycle;Max_cycle;Signal;HPM_P1;HPM_P2
2022/09/17 00:00:47;;;;;;;1.83;1.15;;;;;;;10.83;86.92;98304.56;4168322;28;20267;-50
2022/09/17 00:02:54;;;;;;;1.50;0.88;;;;;;;10.96;87.20;98309.63;4169714;28;20673;-46
2022/09/17 00:04:57;;;;;;;1.08;0.90;;;;;;;10.85;87.73;98312.53;4172747;28;20195;-49
2022/09/17 00:07:03;;;;;;;3.72;1.42;;;;;;;10.91;87.23;98306.84;4175333;28;20212;-47
2022/09/17 00:09:07;;;;;;;2.20;1.05;;;;;;;10.81;87.69;98305.09;4156810;28;20252;-47
2022/09/17 00:11:31;;;;;;;2.30;0.88;;;;;;;10.76;87.86;98308.56;4172585;28;20235;-45
2022/09/17 00:13:37;;;;;;;2.10;1.10;;;;;;;10.64;88.18;98301.59;4155837;28;20248;-46
2022/09/17 00:15:45;;;;;;;3.00;1.10;;;;;;;10.76;88.20;98303.09;4172395;28;20271;-47
2022/09/17 00:17:54;;;;;;;0.93;0.90;;;;;;;10.68;88.19;98300.00;4161715;28;20666;-46
2022/09/17 00:19:56;;;;;;;2.35;1.10;;;;;;;10.59;88.86;98299.63;4158133;28;20231;-48
2022/09/17 00:21:58;;;;;;;4.32;0.90;;;;;;;10.55;89.09;98300.41;4160219;28;20239;-47
2022/09/17 00:24:04;;;;;;;1.02;0.90;;;;;;;10.59;89.13;98299.63;4171875;28;20240;-47
2022/09/17 00:26:07;;;;;;;4.30;1.10;;;;;;;10.60;88.66;98308.66;4170332;28;20236;-46
2022/09/17 00:28:12;;;;;;;1.20;1.10;;;;;;;10.65;88.49;98305.97;4155044;28;20221;-48
2022/09/17 00:30:13;;;;;;;1.30;1.00;;;;;;;10.56;89.00;98318.47;4184914;28;20708;-48
2022/09/17 00:32:15;;;;;;;1.63;0.90;;;;;;;10.59;88.99;98307.00;4167796;28;20303;-48
2022/09/17 00:34:17;;;;;;;0.90;0.90;;;;;;;10.46;89.72;98312.84;4168258;28;20675;-48
2022/09/17 00:36:19;;;;;;;1.50;0.90;;;;;;;10.53;89.56;98318.97;4168800;28;20300;-48
2022/09/17 00:38:21;;;;;;;1.92;1.00;;;;;;;10.59;89.41;98313.31;4152903;28;20201;-46
2022/09/17 00:40:23;;;;;;;1.05;0.82;;;;;;;10.53;89.58;98318.97;4168851;28;20311;-45
2022/09/17 00:42:25;;;;;;;1.83;0.90;;;;;;;10.58;89.44;98319.03;4160272;28;20622;-45
2022/09/17 00:44:45;;;;;;;1.05;0.80;;;;;;;10.60;88.97;98314.13;4152728;28;20312;-45
2022/09/17 00:46:48;;;;;;;1.55;0.90;;;;;;;10.63;89.30;98313.63;4168169;28;20215;-45
2022/09/17 00:48:52;;;;;;;1.35;0.80;;;;;;;10.58;89.67;98305.34;4153265;28;20283;-47
2022/09/17 00:50:55;;;;;;;3.40;1.17;;;;;;;10.61;89.62;98307.59;4184334;28;20232;-46
2022/09/17 00:53:04;;;;;;;0.98;0.80;;;;;;;10.57;89.78;98298.22;4150081;28;20361;-45
2022/09/17 00:55:22;;;;;;;1.88;0.77;;;;;;;10.36;89.92;98299.06;4160896;28;20205;-46
2022/09/17 00:57:24;;;;;;;0.98;0.75;;;;;;;10.41;90.19;98299.13;4176039;28;20695;-46
2022/09/17 00:59:25;;;;;;;0.82;0.77;;;;;;;10.44;90.15;98302.19;4166214;28;20636;-45
2022/09/17 01:01:28;;;;;;;1.88;0.88;;;;;;;10.48;89.83;98302.50;4166017;28;20680;-46
2022/09/17 01:03:29;;;;;;;1.58;0.82;;;;;;;10.38;90.38;98305.09;4182319;28;20207;-45
2022/09/17 01:05:44;;;;;;;1.75;1.17;;;;;;;10.27;90.79;98304.13;4151406;28;20299;-45
2022/09/17 01:08:09;;;;;;;2.97;1.30;;;;;;;10.20;91.28;98300.75;4156941;28;20213;-46
2022/09/17 01:10:32;;;;;;;2.05;0.90;;;;;;;9.99;91.93;98300.69;4166383;28;20239;-47
2022/09/17 01:12:50;;;;;;;1.42;1.23;;;;;;;9.93;92.53;98309.88;4159118;28;20220;-45
2022/09/17 01:15:00;;;;;;;0.80;0.80;;;;;;;10.06;92.07;98306.84;4166656;28;20236;-46
2022/09/17 01:17:40;;;;;;;1.23;0.93;;;;;;;9.83;92.65;98301.56;4185449;28;20192;-45
2022/09/17 01:19:44;;;;;;;1.27;1.05;;;;;;;9.77;92.79;98297.09;4105110;28;20498;-43
2022/09/17 01:22:03;;;;;;;1.63;1.08;;;;;;;9.83;92.97;98296.09;4140694;28;20685;-46
2022/09/17 01:24:26;;;;;;;0.95;0.90;;;;;;;9.65;93.51;98304.53;4148171;28;20209;-47
2022/09/17 01:26:58;;;;;;;1.98;1.20;;;;;;;9.90;93.31;98296.75;4153351;28;20207;-47
2022/09/17 01:29:37;;;;;;;2.78;1.15;;;;;;;9.86;92.99;98292.84;4158293;28;20237;-47
2022/09/17 01:32:08;;;;;;;1.65;1.20;;;;;;;9.80;93.22;98302.88;4170162;28;20207;-48
2022/09/17 01:34:21;;;;;;;3.53;0.93;;;;;;;9.80;93.32;98302.88;4153286;28;20293;-48
2022/09/17 01:36:57;;;;;;;1.00;1.00;;;;;;;9.65;94.02;98304.53;4167654;28;20463;-47
2022/09/17 01:39:13;;;;;;;1.00;0.98;;;;;;;9.67;94.08;98305.16;4157785;28;20312;-47
2022/09/17 01:41:41;;;;;;;1.25;1.20;;;;;;;9.66;94.65;98300.72;4153309;28;20298;-47
2022/09/17 01:43:55;;;;;;;2.85;1.23;;;;;;;9.51;95.39;98306.81;4131045;28;20209;-46
2022/09/17 01:46:11;;;;;;;1.85;1.23;;;;;;;9.72;93.86;98316.13;4141215;28;20213;-46
2022/09/17 01:48:20;;;;;;;1.25;1.15;;;;;;;9.58;94.69;98310.19;4169944;28;20765;-46
2022/09/17 01:50:28;;;;;;;3.28;1.67;;;;;;;9.53;94.78;98306.53;4161154;28;20737;-46
2022/09/17 01:52:33;;;;;;;7.57;1.20;;;;;;;9.54;94.76;98309.03;4175317;28;20629;-47
2022/09/17 01:54:40;;;;;;;2.58;1.63;;;;;;;9.63;94.85;98312.16;4159162;28;20295;-47
2022/09/17 01:56:50;;;;;;;1.75;1.05;;;;;;;9.70;94.56;98308.22;4187942;28;20655;-47
2022/09/17 01:58:57;;;;;;;3.83;1.20;;;;;;;9.70;94.49;98318.28;4161010;28;20274;-46
2022/09/17 02:01:02;;;;;;;1.90;0.98;;;;;;;9.76;94.28;98317.31;4176061;28;20212;-47
2022/09/17 02:03:22;;;;;;;2.38;1.20;;;;;;;9.79;94.19;98322.25;4169376;28;20218;-46
2022/09/17 02:05:30;;;;;;;8.73;1.10;;;;;;;9.68;94.14;98325.91;4154085;28;20296;-47
2022/09/17 02:07:36;;;;;;;3.80;1.10;;;;;;;9.75;94.21;98323.84;4154406;28;20243;-47
2022/09/17 02:09:42;;;;;;;3.17;1.20;;;;;;;9.76;93.82;98326.31;4140736;28;20237;-47
2022/09/17 02:11:50;;;;;;;1.85;1.13;;;;;;;9.79;93.41;98330.44;4154127;28;20236;-46
2022/09/17 02:14:11;;;;;;;6.63;1.17;;;;;;;9.87;93.51;98328.13;4157030;28;20228;-47
2022/09/17 02:16:28;;;;;;;1.52;1.20;;;;;;;9.91;92.90;98337.50;4176672;28;20291;-47
2022/09/17 02:18:39;;;;;;;2.90;1.25;;;;;;;9.88;93.26;98337.16;4154552;28;20822;-47
2022/09/17 02:20:50;;;;;;;2.78;1.15;;;;;;;9.94;92.86;98330.72;4151758;28;20297;-47
2022/09/17 02:22:55;;;;;;;2.85;1.27;;;;;;;9.96;92.86;98328.53;4172697;28;20211;-47
2022/09/17 02:25:15;;;;;;;2.33;1.23;;;;;;;9.79;93.16;98338.66;4161499;28;20210;-47
2022/09/17 02:27:23;;;;;;;2.00;1.08;;;;;;;9.79;93.29;98344.09;4156306;28;20687;-47
2022/09/17 02:29:31;;;;;;;1.25;1.00;;;;;;;9.73;93.47;98328.72;4169545;28;20251;-47
2022/09/17 02:31:34;;;;;;;2.65;1.20;;;;;;;9.80;93.33;98318.44;4153166;28;20199;-47
2022/09/17 02:33:37;;;;;;;3.13;0.80;;;;;;;9.86;93.12;98326.47;4161936;28;20224;-46
2022/09/17 02:35:38;;;;;;;2.25;1.10;;;;;;;9.71;93.43;98326.25;4171508;28;20318;-48
2022/09/17 02:37:41;;;;;;;2.63;1.08;;;;;;;9.81;93.26;98328.31;4143077;28;20831;-47
2022/09/17 02:39:42;;;;;;;6.15;1.10;;;;;;;9.81;93.06;98333.78;4169528;28;20231;-47
2022/09/17 02:41:50;;;;;;;1.58;1.00;;;;;;;9.78;93.37;98337.00;4170199;28;20208;-47
2022/09/17 02:44:12;;;;;;;1.27;1.00;;;;;;;9.81;92.63;98337.31;4153199;28;20199;-46
2022/09/17 02:46:24;;;;;;;1.85;1.38;;;;;;;9.76;92.37;98334.50;4170156;28;20686;-47
2022/09/17 02:48:44;;;;;;;1.65;1.10;;;;;;;9.81;92.69;98336.50;4184897;28;20219;-47
2022/09/17 02:51:23;;;;;;;3.92;1.40;;;;;;;9.63;93.14;98334.03;4156925;28;20288;-46
2022/09/17 02:53:31;;;;;;;3.55;1.52;;;;;;;9.49;93.78;98332.69;4165714;28;20785;-47
2022/09/17 02:55:49;;;;;;;1.20;1.20;;;;;;;9.46;93.59;98334.03;4156212;28;20239;-47
2022/09/17 02:58:00;;;;;;;1.30;1.17;;;;;;;9.41;94.59;98335.84;4154533;28;20654;-47
2022/09/17 03:00:05;;;;;;;3.20;1.40;;;;;;;9.54;94.27;98335.53;4185123;28;20222;-47
2022/09/17 03:02:29;;;;;;;1.10;1.00;;;;;;;9.59;93.99;98343.78;4185392;28;20215;-47
2022/09/17 03:04:31;;;;;;;1.65;1.20;;;;;;;9.55;93.75;98337.19;4150376;28;20220;-47
2022/09/17 03:06:33;;;;;;;2.95;1.13;;;;;;;9.64;93.68;98335.69;4137498;28;20301;-47
2022/09/17 03:08:38;;;;;;;1.55;1.15;;;;;;;9.39;94.82;98337.97;4171877;28;20237;-46
2022/09/17 03:10:40;;;;;;;2.25;1.50;;;;;;;9.51;94.30;98341.47;4168182;28;20353;-47
2022/09/17 03:12:42;;;;;;;1.60;1.30;;;;;;;9.32;94.88;98337.31;4155420;28;20204;-48
2022/09/17 03:14:44;;;;;;;1.73;1.08;;;;;;;9.43;95.24;98339.16;4153642;28;20209;-47
2022/09/17 03:16:46;;;;;;;2.45;1.40;;;;;;;9.32;95.70;98343.59;4153541;28;20211;-46
2022/09/17 03:18:47;;;;;;;5.60;1.35;;;;;;;9.43;95.30;98344.59;4152932;28;20223;-46
2022/09/17 03:20:49;;;;;;;1.25;1.15;;;;;;;9.47;94.77;98343.03;4156039;28;20690;-47
2022/09/17 03:22:51;;;;;;;2.03;1.30;;;;;;;9.26;94.89;98335.56;4186554;28;20302;-47
2022/09/17 03:24:52;;;;;;;2.08;1.40;;;;;;;9.24;96.11;98340.44;4160414;28;20290;-46
2022/09/17 03:26:54;;;;;;;2.80;1.50;;;;;;;9.29;95.59;98341.34;4188239;28;20291;-46
2022/09/17 03:28:57;;;;;;;2.85;1.50;;;;;;;9.33;95.47;98330.75;4153983;28;21197;-47
2022/09/17 03:30:59;;;;;;;1.60;1.50;;;;;;;9.40;95.12;98350.53;4186115;28;20212;-46
2022/09/17 03:33:01;;;;;;;1.80;1.10;;;;;;;9.41;95.50;98346.78;4157845;28;20755;-46
2022/09/17 03:35:02;;;;;;;3.10;1.10;;;;;;;9.49;95.39;98344.44;4158183;28;20239;-47
2022/09/17 03:37:04;;;;;;;1.27;1.17;;;;;;;9.32;96.02;98342.78;4171609;28;20284;-46
2022/09/17 03:39:06;;;;;;;2.53;1.20;;;;;;;9.24;96.24;98335.00;4159256;28;20224;-46
2022/09/17 03:41:07;;;;;;;3.17;1.38;;;;;;;9.32;96.44;98332.69;4184554;28;20662;-47
2022/09/17 03:43:09;;;;;;;3.17;1.60;;;;;;;9.28;96.39;98341.63;4154492;28;20204;-47
2022/09/17 03:45:11;;;;;;;9.40;1.45;;;;;;;9.25;95.84;98342.09;4152672;28;20219;-46
2022/09/17 03:47:15;;;;;;;2.35;1.10;;;;;;;9.25;96.89;98342.94;4154185;28;20197;-47
2022/09/17 03:49:17;;;;;;;1.00;1.00;;;;;;;9.28;96.26;98347.09;4185922;28;20327;-46
2022/09/17 03:51:19;;;;;;;2.85;1.85;;;;;;;9.22;96.96;98348.06;4176108;28;20212;-46
2022/09/17 03:53:20;;;;;;;2.42;1.65;;;;;;;9.24;96.73;98343.19;4160692;28;20829;-46
2022/09/17 03:55:22;;;;;;;1.58;1.48;;;;;;;9.27;96.98;98350.84;4157037;28;20685;-46
2022/09/17 03:57:24;;;;;;;2.33;1.48;;;;;;;9.29;96.87;98354.19;4160318;28;20749;-47
2022/09/17 03:59:26;;;;;;;1.15;0.98;;;;;;;9.46;96.24;98352.28;4158339;28;20575;-46
2022/09/17 04:01:28;;;;;;;1.42;1.20;;;;;;;9.50;96.17;98357.03;4183286;28;20283;-47
2022/09/17 04:03:30;;;;;;;2.83;1.25;;;;;;;9.59;95.43;98361.00;4185226;28;20239;-47
2022/09/17 04:05:32;;;;;;;1.88;1.52;;;;;;;9.62;95.43;98370.63;4159346;28;20205;-47
2022/09/17 04:07:34;;;;;;;9.25;1.73;;;;;;;9.69;94.66;98365.81;4152724;28;20678;-47
2022/09/17 04:09:35;;;;;;;1.17;1.00;;;;;;;9.74;94.96;98371.38;4160566;28;20324;-46
2022/09/17 04:11:37;;;;;;;5.03;1.38;;;;;;;9.60;95.59;98370.84;4183633;28;20208;-46
2022/09/17 04:13:39;;;;;;;2.83;1.67;;;;;;;9.58;95.63;98370.28;4150585;28;20303;-47
2022/09/17 04:15:41;;;;;;;2.42;1.30;;;;;;;9.72;95.16;98370.78;4157355;28;20211;-47
2022/09/17 04:17:43;;;;;;;2.75;1.20;;;;;;;9.64;95.52;98366.56;4152089;28;20290;-47
2022/09/17 04:19:44;;;;;;;3.33;1.40;;;;;;;9.67;95.44;98373.44;4151164;28;20634;-46
2022/09/17 04:21:46;;;;;;;2.95;1.50;;;;;;;9.65;95.72;98372.84;4155024;28;20671;-45
2022/09/17 04:23:48;;;;;;;2.75;1.30;;;;;;;9.66;96.68;98367.13;4167983;28;20231;-47
2022/09/17 04:25:49;;;;;;;1.48;1.23;;;;;;;9.44;96.90;98357.19;4160323;28;20304;-47
2022/09/17 04:27:51;;;;;;;1.60;1.48;;;;;;;9.45;97.55;98362.41;4159031;28;20220;-46
2022/09/17 04:29:53;;;;;;;1.48;1.20;;;;;;;9.37;97.78;98365.56;4182398;28;20613;-47
2022/09/17 04:31:54;;;;;;;3.00;1.63;;;;;;;9.51;97.59;98360.59;4142262;28;20757;-48
2022/09/17 04:33:56;;;;;;;1.67;1.40;;;;;;;9.49;97.65;98365.47;4183037;28;20203;-46
2022/09/17 04:35:58;;;;;;;3.33;1.92;;;;;;;9.43;98.03;98367.25;4168449;28;20216;-47
2022/09/17 04:38:00;;;;;;;3.10;1.85;;;;;;;9.56;97.64;98371.59;4155155;28;20215;-46
2022/09/17 04:40:02;;;;;;;3.95;2.25;;;;;;;9.55;96.98;98367.22;4166199;28;20318;-46
2022/09/17 04:42:08;;;;;;;3.05;1.83;;;;;;;9.55;97.36;98365.31;4151607;28;20267;-46
2022/09/17 04:44:10;;;;;;;2.13;1.60;;;;;;;9.44;98.00;98373.56;4163052;28;20298;-47
2022/09/17 04:46:13;;;;;;;2.17;1.40;;;;;;;9.50;97.85;98378.06;4155498;28;20658;-46
2022/09/17 04:48:14;;;;;;;3.13;1.80;;;;;;;9.46;98.11;98382.34;4154292;28;20209;-47
2022/09/17 04:50:18;;;;;;;4.57;1.50;;;;;;;9.49;98.12;98381.88;4169956;28;20227;-47
2022/09/17 04:52:19;;;;;;;5.65;1.40;;;;;;;9.44;97.72;98381.75;4158009;28;20694;-47
2022/09/17 04:54:21;;;;;;;4.20;1.80;;;;;;;9.42;98.62;98386.66;4154041;28;20296;-47
2022/09/17 04:56:23;;;;;;;2.83;2.42;;;;;;;9.39;98.31;98392.59;4156140;28;20205;-47
2022/09/17 04:58:25;;;;;;;2.08;1.83;;;;;;;9.47;98.26;98394.91;4159923;28;20211;-47
2022/09/17 05:00:26;;;;;;;3.58;2.30;;;;;;;9.23;98.30;98396.13;4169134;28;20287;-47
2022/09/17 05:02:28;;;;;;;2.92;1.23;;;;;;;9.25;99.14;98391.25;4160048;28;20295;-46
2022/09/17 05:04:30;;;;;;;1.50;1.40;;;;;;;9.37;98.71;98389.28;4152373;28;20209;-47
2022/09/17 05:06:32;;;;;;;2.22;1.58;;;;;;;9.53;97.92;98388.47;4152912;28;20221;-47
2022/09/17 05:08:33;;;;;;;6.75;1.67;;;;;;;9.58;97.44;98391.31;4154019;28;20240;-48
2022/09/17 05:10:35;;;;;;;2.22;1.60;;;;;;;9.53;98.28;98383.00;4159283;28;20224;-47
2022/09/17 05:12:37;;;;;;;5.60;1.75;;;;;;;9.60;97.60;98389.13;4156066;28;20294;-46
2022/09/17 05:14:39;;;;;;;2.80;2.15;;;;;;;9.56;97.51;98394.25;4141431;28;20297;-47
2022/09/17 05:16:40;;;;;;;1.83;1.70;;;;;;;9.54;97.23;98390.16;4161500;28;20529;-46
2022/09/17 05:18:42;;;;;;;4.22;1.95;;;;;;;9.50;97.51;98389.81;4154192;28;20295;-46
2022/09/17 05:20:44;;;;;;;1.17;1.10;;;;;;;9.54;97.57;98390.16;4154456;28;20217;-46
2022/09/17 05:22:47;;;;;;;3.53;1.50;;;;;;;9.52;97.48;98392.28;4164691;28;20680;-46
2022/09/17 05:24:49;;;;;;;2.65;1.75;;;;;;;9.61;97.15;98396.28;4155981;28;20292;-46
2022/09/17 05:26:51;;;;;;;2.83;1.55;;;;;;;9.59;97.31;98399.25;4146920;28;20639;-47
2022/09/17 05:28:52;;;;;;;2.80;1.90;;;;;;;9.65;96.88;98401.00;4154764;28;20231;-47
2022/09/17 05:30:57;;;;;;;3.85;1.90;;;;;;;9.40;98.17;98405.16;4186836;28;20200;-47
2022/09/17 05:33:01;;;;;;;8.27;4.65;;;;;;;9.53;98.25;98404.84;4156297;28;20212;-47
2022/09/17 05:35:03;;;;;;;5.05;1.90;;;;;;;9.57;97.60;98395.09;4155763;28;20819;-47
2022/09/17 05:37:11;;;;;;;2.53;1.58;;;;;;;9.60;96.97;98400.06;4172846;28;20208;-48
2022/09/17 05:39:13;;;;;;;4.55;1.77;;;;;;;9.49;97.41;98401.78;4188263;28;20227;-47
2022/09/17 05:41:15;;;;;;;3.72;2.22;;;;;;;9.56;97.00;98409.84;4186495;28;20285;-46
2022/09/17 05:43:16;;;;;;;3.38;1.85;;;;;;;9.56;97.34;98413.38;4159664;28;20205;-47
2022/09/17 05:45:18;;;;;;;2.35;1.80;;;;;;;9.50;97.51;98410.81;4184348;28;20306;-47
2022/09/17 05:47:20;;;;;;;4.57;1.52;;;;;;;9.60;97.34;98408.25;4148444;28;20202;-47
2022/09/17 05:49:21;;;;;;;3.53;2.42;;;;;;;9.43;98.32;98416.44;4169878;28;20224;-46
2022/09/17 05:51:23;;;;;;;4.25;2.42;;;;;;;9.46;98.17;98417.84;4158223;28;20212;-47
2022/09/17 05:53:25;;;;;;;4.78;3.03;;;;;;;9.29;98.82;98414.25;4161922;28;20205;-47
2022/09/17 05:55:27;;;;;;;8.20;1.75;;;;;;;9.31;98.95;98420.28;4157182;28;20680;-46
2022/09/17 05:57:29;;;;;;;3.67;2.40;;;;;;;9.30;98.81;98421.38;4157106;28;20290;-47
2022/09/17 05:59:31;;;;;;;5.13;2.28;;;;;;;9.34;99.01;98428.81;4176185;28;20223;-47
2022/09/17 06:01:32;;;;;;;2.47;1.75;;;;;;;9.37;99.03;98432.97;4187486;28;20212;-47
2022/09/17 06:03:34;;;;;;;6.07;2.38;;;;;;;9.36;99.04;98431.31;4174995;28;20670;-48
2022/09/17 06:05:36;;;;;;;4.28;1.75;;;;;;;9.54;98.47;98436.59;4161403;28;20217;-47
2022/09/17 06:07:38;;;;;;;7.68;2.00;;;;;;;9.47;98.36;98433.16;4170238;28;20211;-46
2022/09/17 06:09:39;;;;;;;6.28;3.70;;;;;;;9.51;98.13;98434.34;4177294;28;20260;-46
2022/09/17 06:11:41;;;;;;;2.22;1.92;;;;;;;9.43;98.50;98438.28;4172872;28;20290;-46
2022/09/17 06:13:43;;;;;;;4.50;2.30;;;;;;;9.40;99.04;98435.19;4176522;28;20666;-46
2022/09/17 06:15:52;;;;;;;5.68;2.03;;;;;;;9.48;99.17;98435.66;4185343;28;20238;-47
2022/09/17 06:17:53;;;;;;;2.10;1.63;;;;;;;9.48;98.74;98435.66;4171083;28;20295;-46
2022/09/17 06:19:55;;;;;;;3.92;1.73;;;;;;;9.58;98.08;98441.31;4173131;28;20223;-49
2022/09/17 06:21:57;;;;;;;2.63;1.88;;;;;;;9.52;98.47;98441.44;4188132;28;20242;-47
2022/09/17 06:23:59;;;;;;;4.05;2.15;;;;;;;9.57;98.29;98444.28;4185984;28;20213;-47
2022/09/17 06:26:02;;;;;;;3.25;2.33;;;;;;;9.63;98.44;98438.66;4175901;28;20207;-46
2022/09/17 06:28:04;;;;;;;7.38;3.13;;;;;;;9.63;98.24;98437.84;4185459;28;20200;-46
2022/09/17 06:30:06;;;;;;;3.22;1.83;;;;;;;9.74;98.18;98445.16;4203641;28;20306;-47
2022/09/17 06:32:11;;;;;;;5.93;1.80;;;;;;;9.78;97.95;98435.38;4172032;28;20295;-47
2022/09/17 06:34:13;;;;;;;3.42;1.98;;;;;;;9.69;97.56;98440.41;4173622;28;20240;-47
2022/09/17 06:36:15;;;;;;;5.03;2.20;;;;;;;9.80;97.52;98438.66;4170553;28;20214;-46
2022/09/17 06:38:16;;;;;;;4.65;2.65;;;;;;;9.92;98.36;98453.09;4204834;28;20286;-47
2022/09/17 06:40:18;;;;;;;4.18;2.08;;;;;;;10.14;97.89;98454.06;4178308;28;20223;-47
2022/09/17 06:42:20;;;;;;;3.97;2.10;;;;;;;10.09;96.55;98454.78;4171537;28;20213;-46
2022/09/17 06:44:22;;;;;;;6.25;2.28;;;;;;;10.09;96.79;98456.72;4149959;28;20224;-46
2022/09/17 06:46:24;;;;;;;2.25;2.05;;;;;;;10.26;97.03;98443.84;4151212;28;20257;-47
2022/09/17 06:48:26;;;;;;;2.97;2.15;;;;;;;10.52;96.16;98457.69;4190887;28;20294;-47
2022/09/17 06:50:28;;;;;;;8.63;1.70;;;;;;;10.51;95.41;98457.91;4156458;28;20312;-47
2022/09/17 06:52:29;;;;;;;3.13;1.63;;;;;;;10.54;95.20;98449.22;4169724;28;20670;-46
2022/09/17 06:54:31;;;;;;;4.47;2.10;;;;;;;10.69;94.71;98450.25;4162274;28;20673;-47
2022/09/17 06:56:33;;;;;;;3.83;2.38;;;;;;;10.79;94.64;98440.25;4144722;28;20730;-47
2022/09/17 06:58:40;;;;;;;4.32;1.90;;;;;;;10.75;93.93;98449.25;4106192;28;20603;-47
2022/09/17 07:00:42;;;;;;;3.38;1.85;;;;;;;10.72;93.49;98448.91;4171297;28;20343;-48
2022/09/17 07:02:54;;;;;;;3.10;1.85;;;;;;;10.68;94.32;98447.78;4155883;28;20207;-47
2022/09/17 07:04:56;;;;;;;3.88;1.90;;;;;;;10.95;94.29;98450.34;4185696;28;20210;-47
2022/09/17 07:06:57;;;;;;;4.82;2.58;;;;;;;11.05;93.77;98455.13;4156837;28;20698;-46
2022/09/17 07:08:59;;;;;;;2.13;1.90;;;;;;;11.11;92.32;98454.94;4158841;28;20224;-46
2022/09/17 07:11:01;;;;;;;1.80;1.35;;;;;;;11.23;92.51;98452.91;4152734;28;20316;-47
2022/09/17 07:13:03;;;;;;;7.28;2.65;;;;;;;11.26;92.70;98457.88;4158702;28;20295;-47
2022/09/17 07:15:05;;;;;;;5.90;2.28;;;;;;;11.22;92.39;98451.25;4158380;28;20244;-46
2022/09/17 07:17:07;;;;;;;5.47;1.75;;;;;;;11.05;91.93;98450.47;4185876;28;20299;-47
2022/09/17 07:19:08;;;;;;;3.25;1.80;;;;;;;11.10;93.05;98450.53;4153563;28;20220;-46
2022/09/17 07:21:11;;;;;;;4.53;1.67;;;;;;;11.34;92.37;98448.34;4173897;28;20210;-47
2022/09/17 07:23:13;;;;;;;2.20;1.77;;;;;;;11.67;92.43;98457.28;4152703;28;20643;-47
2022/09/17 07:25:15;;;;;;;3.95;1.80;;;;;;;11.69;90.31;98457.84;4151296;28;20205;-46
2022/09/17 07:27:17;;;;;;;2.20;1.55;;;;;;;12.24;90.77;98454.78;4152898;28;20207;-46
2022/09/17 07:29:25;;;;;;;4.38;2.10;;;;;;;12.60;87.29;98454.78;4156591;28;20651;-47
2022/09/17 07:31:26;;;;;;;1.38;1.20;;;;;;;12.71;86.92;98451.00;4167050;28;20212;-46
2022/09/17 07:33:28;;;;;;;3.65;1.55;;;;;;;12.83;85.77;98448.06;4170141;28;20319;-46
2022/09/17 07:35:30;;;;;;;3.47;2.03;;;;;;;13.25;85.34;98449.66;4153329;28;20208;-46
2022/09/17 07:37:32;;;;;;;2.75;1.85;;;;;;;13.86;84.10;98454.25;4169001;28;20287;-47
2022/09/17 07:39:34;;;;;;;2.95;1.50;;;;;;;13.70;82.23;98455.31;4157163;28;20323;-46
2022/09/17 07:41:36;;;;;;;3.28;1.50;;;;;;;13.37;82.77;98455.75;4155172;28;20741;-47
2022/09/17 07:43:38;;;;;;;4.80;1.67;;;;;;;13.42;82.75;98453.03;4170636;28;20676;-47
2022/09/17 07:45:40;;;;;;;4.47;1.90;;;;;;;13.02;83.67;98452.03;4155471;28;20241;-46
2022/09/17 07:47:43;;;;;;;5.22;1.42;;;;;;;12.76;85.10;98448.28;4155354;28;20260;-48
2022/09/17 07:49:44;;;;;;;5.10;1.45;;;;;;;12.81;85.28;98453.81;4150772;28;20275;-47
2022/09/17 07:51:49;;;;;;;4.07;1.50;;;;;;;12.84;85.69;98456.00;4150488;28;20290;-47
2022/09/17 07:53:52;;;;;;;3.10;1.45;;;;;;;12.78;85.37;98457.06;4152794;28;20254;-47
2022/09/17 07:55:55;;;;;;;7.32;1.77;;;;;;;12.37;86.15;98466.13;4150603;28;20245;-47
2022/09/17 07:57:57;;;;;;;2.53;1.75;;;;;;;12.56;85.95;98467.38;4164541;28;20230;-47
2022/09/17 07:59:59;;;;;;;3.90;2.20;;;;;;;13.22;84.77;98466.69;4150670;28;20234;-47
2022/09/17 08:02:00;;;;;;;3.22;1.50;;;;;;;13.55;83.23;98463.53;4148242;28;20200;-46
2022/09/17 08:04:03;;;;;;;4.72;1.85;;;;;;;13.97;81.47;98471.59;4160027;28;20709;-47
2022/09/17 08:06:13;;;;;;;3.83;1.65;;;;;;;14.64;81.05;98466.69;4151586;28;20224;-47
2022/09/17 08:08:15;;;;;;;3.20;1.20;;;;;;;14.90;79.05;98460.84;4171852;28;20203;-47
2022/09/17 08:10:22;;;;;;;5.22;1.90;;;;;;;15.31;77.52;98461.56;4155888;28;20231;-48
2022/09/17 08:12:27;;;;;;;3.90;2.10;;;;;;;16.06;76.33;98462.03;4156383;28;20295;-50
2022/09/17 08:14:29;;;;;;;3.03;1.20;;;;;;;15.46;75.58;98450.50;4146017;28;20210;-47
2022/09/17 08:16:31;;;;;;;3.42;1.40;;;;;;;15.61;76.44;98450.41;4185224;28;20204;-47
2022/09/17 08:18:34;;;;;;;2.80;1.00;;;;;;;15.58;73.61;98457.34;4138920;28;20273;-47
2022/09/17 08:20:36;;;;;;;2.40;0.93;;;;;;;15.74;74.34;98460.81;4160250;28;20594;-47
2022/09/17 08:22:38;;;;;;;2.65;1.02;;;;;;;16.32;72.88;98452.44;4167565;28;20201;-47
2022/09/17 08:24:41;;;;;;;3.80;0.88;;;;;;;16.02;71.65;98463.69;4152587;28;20212;-46
2022/09/17 08:26:43;;;;;;;3.83;1.15;;;;;;;16.56;70.93;98466.38;4153745;28;20297;-47
2022/09/17 08:28:50;;;;;;;3.20;0.90;;;;;;;16.65;70.69;98467.38;4158300;28;20691;-47
2022/09/17 08:30:52;;;;;;;2.13;0.90;;;;;;;16.55;70.57;98461.97;4170857;28;20306;-47
2022/09/17 08:32:57;;;;;;;4.03;1.27;;;;;;;16.73;69.86;98464.81;4184261;28;20215;-48
2022/09/17 08:34:59;;;;;;;1.75;0.90;;;;;;;15.74;68.44;98467.19;4151616;28;20204;-47
2022/09/17 08:37:01;;;;;;;2.47;0.75;;;;;;;16.30;69.61;98471.22;4153685;28;20299;-48
2022/09/17 08:39:03;;;;;;;2.50;1.10;;;;;;;16.51;68.38;98464.47;4152341;28;20551;-48
2022/09/17 08:41:23;;;;;;;2.53;0.90;;;;;;;16.02;67.65;98468.41;4168155;28;23601;-48
2022/09/17 08:43:26;;;;;;;6.68;1.35;;;;;;;16.58;68.61;98466.88;4163942;28;20214;-47
2022/09/17 08:45:28;;;;;;;2.25;0.82;;;;;;;16.64;67.43;98466.53;4167742;28;20243;-47
2022/09/17 08:47:35;;;;;;;3.55;1.08;;;;;;;16.82;67.72;98465.81;4154361;28;20224;-47
2022/09/17 08:49:58;;;;;;;1.92;1.08;;;;;;;17.04;67.58;98463.38;4153304;28;20263;-47
2022/09/17 08:52:24;;;;;;;1.77;0.70;;;;;;;16.67;64.00;98465.97;4156530;28;20822;-47
2022/09/17 08:54:35;;;;;;;1.95;0.93;;;;;;;16.51;65.17;98460.88;4182374;28;20265;-46
2022/09/17 08:56:38;;;;;;;1.83;0.80;;;;;;;16.85;65.93;98467.19;4168206;28;20283;-47
2022/09/17 08:59:01;;;;;;;2.17;0.57;;;;;;;16.79;64.66;98469.19;4164592;28;20295;-47
2022/09/17 09:01:32;;;;;;;3.53;0.90;;;;;;;16.96;62.72;98469.53;4154814;28;20236;-46
2022/09/17 09:03:43;;;;;;;2.80;0.85;;;;;;;17.11;64.04;98461.13;4153536;28;20200;-47
2022/09/17 09:05:47;;;;;;;1.48;0.88;;;;;;;17.32;63.78;98468.06;4153623;28;20351;-47
2022/09/17 09:07:54;;;;;;;2.70;0.80;;;;;;;16.48;63.59;98467.78;4165563;28;20212;-47
2022/09/17 09:10:05;;;;;;;6.82;0.93;;;;;;;16.09;65.05;98475.22;4167918;28;20228;-47
2022/09/17 09:12:23;;;;;;;3.60;0.75;;;;;;;16.47;65.28;98471.69;4163015;28;20204;-47
2022/09/17 09:15:04;;;;;;;1.60;0.70;;;;;;;16.76;63.38;98469.75;4154174;28;20252;-46
2022/09/17 09:17:08;;;;;;;3.55;1.60;;;;;;;16.57;64.07;98471.56;4089559;28;20225;-48
2022/09/17 09:19:25;;;;;;;2.25;0.90;;;;;;;16.28;66.02;98472.59;4131145;28;20225;-48
2022/09/17 09:21:31;;;;;;;3.30;1.10;;;;;;;16.12;64.68;98473.84;4153273;28;20210;-46
2022/09/17 09:24:03;;;;;;;1.52;0.95;;;;;;;15.80;66.60;98459.69;4187646;28;20235;-47
2022/09/17 09:26:21;;;;;;;3.75;1.23;;;;;;;15.51;67.61;98473.34;4151915;28;20201;-47
2022/09/17 09:28:35;;;;;;;1.88;0.77;;;;;;;16.12;65.78;98474.69;4168868;28;20242;-47
2022/09/17 09:30:50;;;;;;;9.38;1.33;;;;;;;16.58;65.06;98472.41;4167936;28;20231;-48
2022/09/17 09:33:12;;;;;;;3.42;0.95;;;;;;;16.97;63.73;98465.66;4167790;28;20215;-48
2022/09/17 09:35:15;;;;;;;2.85;1.08;;;;;;;16.79;63.70;98469.19;4156536;28;20230;-47
2022/09/17 09:37:22;;;;;;;2.15;0.90;;;;;;;16.81;63.62;98472.47;4179751;28;20208;-47
2022/09/17 09:39:29;;;;;;;2.17;0.85;;;;;;;16.76;64.53;98472.50;4167778;28;20247;-47
2022/09/17 09:41:45;;;;;;;4.00;1.30;;;;;;;16.38;63.23;98478.09;4175652;28;20287;-47
2022/09/17 09:43:52;;;;;;;2.25;0.93;;;;;;;16.88;62.35;98478.47;4153620;28;20284;-47
2022/09/17 09:46:49;;;;;;;2.03;0.85;;;;;;;16.59;62.22;98474.91;4165602;28;20204;-47
2022/09/17 09:49:00;;;;;;;4.60;1.05;;;;;;;16.37;63.27;98474.47;4118984;28;20234;-47
2022/09/17 09:51:08;;;;;;;6.78;1.25;;;;;;;16.36;65.19;98472.81;4140744;28;20671;-47
2022/09/17 09:53:16;;;;;;;2.22;0.88;;;;;;;15.80;63.18;98476.25;4180127;28;20214;-47
2022/09/17 09:55:28;;;;;;;3.15;1.00;;;;;;;15.75;65.15;98485.38;4181235;28;20201;-48
2022/09/17 09:57:43;;;;;;;4.93;0.90;;;;;;;15.48;68.14;98481.38;4183349;28;21098;-47
2022/09/17 09:59:45;;;;;;;4.63;2.10;;;;;;;15.28;68.81;98482.25;4153766;28;20541;-47